sensor_id;sensor_type;location;lat;lon;timestamp;P1;durP1;ratioP1;P2;durP2;ratioP2
20069;SDS011;10195;50.868;4.382;2023-11-19T00:02:23;8.27;;;4.03;;
20069;SDS011;10195;50.868;4.382;2023-11-19T00:04:48;10.60;;;4.60;;
20069;SDS011;10195;50.868;4.382;2023-11-19T00:07:14;8.77;;;3.50;;
20069;SDS011;10195;50.868;4.382;2023-11-19T00:09:41;10.50;;;4.47;;
20069;SDS011;10195;50.868;4.382;2023-11-19T00:12:07;6.73;;;3.80;;
20069;SDS011;10195;50.868;4.382;2023-11-19T00:14:33;11.97;;;4.10;;
20069;SDS011;10195;50.868;4.382;2023-11-19T00:16:59;12.33;;;4.17;;
20069;SDS011;10195;50.868;4.382;2023-11-19T00:19:25;9.57;;;3.53;;
20069;SDS011;10195;50.868;4.382;2023-11-19T00:21:51;6.73;;;3.60;;
20069;SDS011;10195;50.868;4.382;2023-11-19T00:24:17;20.03;;;4.27;;
20069;SDS011;10195;50.868;4.382;2023-11-19T00:26:43;15.67;;;4.03;;
20069;SDS011;10195;50.868;4.382;2023-11-19T00:29:09;10.70;;;3.77;;
20069;SDS011;10195;50.868;4.382;2023-11-19T00:31:35;8.03;;;3.63;;
20069;SDS011;10195;50.868;4.382;2023-11-19T00:34:01;15.40;;;3.87;;
20069;SDS011;10195;50.868;4.382;2023-11-19T00:36:27;14.40;;;3.80;;
20069;SDS011;10195;50.868;4.382;2023-11-19T00:38:53;17.10;;;3.73;;
20069;SDS011;10195;50.868;4.382;2023-11-19T00:41:19;17.33;;;4.23;;
20069;SDS011;10195;50.868;4.382;2023-11-19T00:43:46;18.17;;;4.00;;
20069;SDS011;10195;50.868;4.382;2023-11-19T00:46:12;10.37;;;3.10;;
20069;SDS011;10195;50.868;4.382;2023-11-19T00:48:38;9.63;;;3.10;;
20069;SDS011;10195;50.868;4.382;2023-11-19T00:51:04;12.43;;;3.37;;
20069;SDS011;10195;50.868;4.382;2023-11-19T00:53:30;17.00;;;3.80;;
20069;SDS011;10195;50.868;4.382;2023-11-19T00:55:57;16.63;;;3.23;;
20069;SDS011;10195;50.868;4.382;2023-11-19T00:58:23;12.63;;;3.10;;
20069;SDS011;10195;50.868;4.382;2023-11-19T01:00:48;18.23;;;4.00;;
20069;SDS011;10195;50.868;4.382;2023-11-19T01:03:14;18.57;;;3.73;;
20069;SDS011;10195;50.868;4.382;2023-11-19T01:05:41;14.57;;;3.70;;
20069;SDS011;10195;50.868;4.382;2023-11-19T01:08:07;14.50;;;3.27;;
20069;SDS011;10195;50.868;4.382;2023-11-19T01:10:33;18.80;;;4.00;;
20069;SDS011;10195;50.868;4.382;2023-11-19T01:12:59;21.43;;;3.77;;
20069;SDS011;10195;50.868;4.382;2023-11-19T01:15:25;11.20;;;3.03;;
20069;SDS011;10195;50.868;4.382;2023-11-19T01:17:51;19.40;;;3.33;;
20069;SDS011;10195;50.868;4.382;2023-11-19T01:20:16;15.80;;;3.97;;
20069;SDS011;10195;50.868;4.382;2023-11-19T01:22:42;18.03;;;3.83;;
20069;SDS011;10195;50.868;4.382;2023-11-19T01:25:08;14.17;;;3.23;;
20069;SDS011;10195;50.868;4.382;2023-11-19T01:27:34;14.43;;;3.93;;
20069;SDS011;10195;50.868;4.382;2023-11-19T01:30:03;22.87;;;4.07;;
20069;SDS011;10195;50.868;4.382;2023-11-19T01:32:29;16.20;;;4.43;;
20069;SDS011;10195;50.868;4.382;2023-11-19T01:34:55;24.27;;;4.43;;
20069;SDS011;10195;50.868;4.382;2023-11-19T01:37:21;15.83;;;3.37;;
20069;SDS011;10195;50.868;4.382;2023-11-19T01:39:46;18.70;;;5.50;;
20069;SDS011;10195;50.868;4.382;2023-11-19T01:42:12;18.47;;;3.83;;
20069;SDS011;10195;50.868;4.382;2023-11-19T01:44:38;21.23;;;4.20;;
20069;SDS011;10195;50.868;4.382;2023-11-19T01:47:04;19.03;;;4.07;;
20069;SDS011;10195;50.868;4.382;2023-11-19T01:49:32;20.17;;;4.03;;
20069;SDS011;10195;50.868;4.382;2023-11-19T01:51:58;15.47;;;3.27;;
20069;SDS011;10195;50.868;4.382;2023-11-19T01:54:24;26.40;;;4.17;;
20069;SDS011;10195;50.868;4.382;2023-11-19T01:56:50;22.63;;;4.43;;
20069;SDS011;10195;50.868;4.382;2023-11-19T01:59:18;21.93;;;3.97;;
20069;SDS011;10195;50.868;4.382;2023-11-19T02:01:51;26.80;;;3.83;;
20069;SDS011;10195;50.868;4.382;2023-11-19T02:04:17;14.67;;;4.30;;
20069;SDS011;10195;50.868;4.382;2023-11-19T02:06:43;23.70;;;4.33;;
20069;SDS011;10195;50.868;4.382;2023-11-19T02:09:13;16.30;;;3.40;;
20069;SDS011;10195;50.868;4.382;2023-11-19T02:11:42;15.60;;;3.67;;
20069;SDS011;10195;50.868;4.382;2023-11-19T02:14:07;17.47;;;3.53;;
20069;SDS011;10195;50.868;4.382;2023-11-19T02:16:33;17.63;;;3.77;;
20069;SDS011;10195;50.868;4.382;2023-11-19T02:18:59;21.37;;;3.80;;
20069;SDS011;10195;50.868;4.382;2023-11-19T02:21:25;28.50;;;4.13;;
20069;SDS011;10195;50.868;4.382;2023-11-19T02:23:50;32.23;;;4.60;;
20069;SDS011;10195;50.868;4.382;2023-11-19T02:26:35;19.30;;;3.90;;
20069;SDS011;10195;50.868;4.382;2023-11-19T02:29:05;21.07;;;4.60;;
20069;SDS011;10195;50.868;4.382;2023-11-19T02:31:31;25.97;;;5.07;;
20069;SDS011;10195;50.868;4.382;2023-11-19T02:33:57;24.27;;;4.43;;
20069;SDS011;10195;50.868;4.382;2023-11-19T02:36:25;26.80;;;4.13;;
20069;SDS011;10195;50.868;4.382;2023-11-19T02:38:51;30.73;;;4.53;;
20069;SDS011;10195;50.868;4.382;2023-11-19T02:41:20;23.30;;;4.07;;
20069;SDS011;10195;50.868;4.382;2023-11-19T02:43:45;20.73;;;4.33;;
20069;SDS011;10195;50.868;4.382;2023-11-19T02:46:13;21.87;;;4.20;;
20069;SDS011;10195;50.868;4.382;2023-11-19T02:48:39;26.87;;;4.57;;
20069;SDS011;10195;50.868;4.382;2023-11-19T02:51:05;28.30;;;5.27;;
20069;SDS011;10195;50.868;4.382;2023-11-19T02:53:34;24.77;;;5.70;;
20069;SDS011;10195;50.868;4.382;2023-11-19T02:56:00;23.73;;;3.93;;
20069;SDS011;10195;50.868;4.382;2023-11-19T02:58:31;25.30;;;4.40;;
20069;SDS011;10195;50.868;4.382;2023-11-19T03:00:57;27.47;;;4.03;;
20069;SDS011;10195;50.868;4.382;2023-11-19T03:03:24;22.60;;;4.87;;
20069;SDS011;10195;50.868;4.382;2023-11-19T03:05:56;29.53;;;4.90;;
20069;SDS011;10195;50.868;4.382;2023-11-19T03:08:22;20.57;;;4.27;;
20069;SDS011;10195;50.868;4.382;2023-11-19T03:10:48;22.10;;;3.87;;
20069;SDS011;10195;50.868;4.382;2023-11-19T03:13:14;31.40;;;4.60;;
20069;SDS011;10195;50.868;4.382;2023-11-19T03:15:40;18.20;;;4.00;;
20069;SDS011;10195;50.868;4.382;2023-11-19T03:18:07;25.50;;;3.63;;
20069;SDS011;10195;50.868;4.382;2023-11-19T03:20:33;23.40;;;4.80;;
20069;SDS011;10195;50.868;4.382;2023-11-19T03:22:58;27.80;;;4.37;;
20069;SDS011;10195;50.868;4.382;2023-11-19T03:25:26;23.03;;;4.03;;
20069;SDS011;10195;50.868;4.382;2023-11-19T03:27:58;39.37;;;5.07;;
20069;SDS011;10195;50.868;4.382;2023-11-19T03:30:23;26.03;;;4.07;;
20069;SDS011;10195;50.868;4.382;2023-11-19T03:32:49;25.80;;;4.93;;
20069;SDS011;10195;50.868;4.382;2023-11-19T03:35:15;28.13;;;4.70;;
20069;SDS011;10195;50.868;4.382;2023-11-19T03:37:41;38.60;;;4.97;;
20069;SDS011;10195;50.868;4.382;2023-11-19T03:40:08;35.17;;;5.40;;
20069;SDS011;10195;50.868;4.382;2023-11-19T03:42:35;29.07;;;4.60;;
20069;SDS011;10195;50.868;4.382;2023-11-19T03:45:01;26.77;;;4.70;;
20069;SDS011;10195;50.868;4.382;2023-11-19T03:47:28;25.13;;;4.10;;
20069;SDS011;10195;50.868;4.382;2023-11-19T03:49:54;27.97;;;5.27;;
20069;SDS011;10195;50.868;4.382;2023-11-19T03:52:20;24.23;;;4.43;;
20069;SDS011;10195;50.868;4.382;2023-11-19T03:54:46;26.93;;;4.20;;
20069;SDS011;10195;50.868;4.382;2023-11-19T03:57:14;25.30;;;4.33;;
20069;SDS011;10195;50.868;4.382;2023-11-19T03:59:43;29.37;;;4.70;;
20069;SDS011;10195;50.868;4.382;2023-11-19T04:02:09;28.43;;;4.70;;
20069;SDS011;10195;50.868;4.382;2023-11-19T04:04:35;20.27;;;3.60;;
20069;SDS011;10195;50.868;4.382;2023-11-19T04:07:01;26.03;;;4.83;;
20069;SDS011;10195;50.868;4.382;2023-11-19T04:09:28;15.90;;;3.43;;
20069;SDS011;10195;50.868;4.382;2023-11-19T04:11:54;25.67;;;5.50;;
20069;SDS011;10195;50.868;4.382;2023-11-19T04:14:21;28.67;;;4.80;;
20069;SDS011;10195;50.868;4.382;2023-11-19T04:16:46;28.83;;;5.00;;
20069;SDS011;10195;50.868;4.382;2023-11-19T04:19:12;30.80;;;4.87;;
20069;SDS011;10195;50.868;4.382;2023-11-19T04:21:41;26.60;;;3.90;;
20069;SDS011;10195;50.868;4.382;2023-11-19T04:24:07;28.47;;;4.47;;
20069;SDS011;10195;50.868;4.382;2023-11-19T04:26:43;24.77;;;5.03;;
20069;SDS011;10195;50.868;4.382;2023-11-19T04:29:13;28.30;;;4.37;;
20069;SDS011;10195;50.868;4.382;2023-11-19T04:31:40;24.80;;;4.60;;
20069;SDS011;10195;50.868;4.382;2023-11-19T04:34:06;27.03;;;4.63;;
20069;SDS011;10195;50.868;4.382;2023-11-19T04:36:33;35.43;;;5.10;;
20069;SDS011;10195;50.868;4.382;2023-11-19T04:38:59;27.47;;;4.30;;
20069;SDS011;10195;50.868;4.382;2023-11-19T04:41:26;34.73;;;5.00;;
20069;SDS011;10195;50.868;4.382;2023-11-19T04:43:55;27.07;;;4.23;;
20069;SDS011;10195;50.868;4.382;2023-11-19T04:46:21;27.27;;;4.87;;
20069;SDS011;10195;50.868;4.382;2023-11-19T04:48:47;23.53;;;3.93;;
20069;SDS011;10195;50.868;4.382;2023-11-19T04:51:12;34.90;;;6.10;;
20069;SDS011;10195;50.868;4.382;2023-11-19T04:53:38;36.07;;;4.53;;
20069;SDS011;10195;50.868;4.382;2023-11-19T04:56:07;38.83;;;6.37;;
20069;SDS011;10195;50.868;4.382;2023-11-19T04:58:34;30.77;;;4.90;;
20069;SDS011;10195;50.868;4.382;2023-11-19T05:01:01;30.57;;;5.00;;
20069;SDS011;10195;50.868;4.382;2023-11-19T05:03:26;34.93;;;5.90;;
20069;SDS011;10195;50.868;4.382;2023-11-19T05:05:52;30.67;;;5.67;;
20069;SDS011;10195;50.868;4.382;2023-11-19T05:08:18;39.83;;;5.13;;
20069;SDS011;10195;50.868;4.382;2023-11-19T05:10:44;40.37;;;5.37;;
20069;SDS011;10195;50.868;4.382;2023-11-19T05:13:10;34.73;;;6.10;;
20069;SDS011;10195;50.868;4.382;2023-11-19T05:15:35;29.90;;;5.43;;
20069;SDS011;10195;50.868;4.382;2023-11-19T05:18:01;26.83;;;5.23;;
20069;SDS011;10195;50.868;4.382;2023-11-19T05:20:27;36.50;;;5.43;;
20069;SDS011;10195;50.868;4.382;2023-11-19T05:22:52;38.83;;;6.23;;
20069;SDS011;10195;50.868;4.382;2023-11-19T05:25:18;37.00;;;5.37;;
20069;SDS011;10195;50.868;4.382;2023-11-19T05:27:45;39.57;;;6.20;;
20069;SDS011;10195;50.868;4.382;2023-11-19T05:30:11;30.97;;;5.13;;
20069;SDS011;10195;50.868;4.382;2023-11-19T05:32:37;35.57;;;5.30;;
20069;SDS011;10195;50.868;4.382;2023-11-19T05:35:02;32.27;;;4.67;;
20069;SDS011;10195;50.868;4.382;2023-11-19T05:37:28;29.83;;;5.30;;
20069;SDS011;10195;50.868;4.382;2023-11-19T05:39:54;24.60;;;4.63;;
20069;SDS011;10195;50.868;4.382;2023-11-19T05:42:20;39.07;;;6.10;;
20069;SDS011;10195;50.868;4.382;2023-11-19T05:44:45;35.10;;;5.37;;
20069;SDS011;10195;50.868;4.382;2023-11-19T05:47:11;39.13;;;6.47;;
20069;SDS011;10195;50.868;4.382;2023-11-19T05:49:37;43.93;;;6.07;;
20069;SDS011;10195;50.868;4.382;2023-11-19T05:52:03;37.57;;;5.93;;
20069;SDS011;10195;50.868;4.382;2023-11-19T05:54:32;33.70;;;5.57;;
20069;SDS011;10195;50.868;4.382;2023-11-19T05:57:02;36.40;;;5.73;;
20069;SDS011;10195;50.868;4.382;2023-11-19T05:59:29;34.53;;;5.60;;
20069;SDS011;10195;50.868;4.382;2023-11-19T06:01:55;37.07;;;6.07;;
20069;SDS011;10195;50.868;4.382;2023-11-19T06:04:22;38.87;;;6.27;;
20069;SDS011;10195;50.868;4.382;2023-11-19T06:06:48;40.63;;;6.53;;
20069;SDS011;10195;50.868;4.382;2023-11-19T06:09:14;41.87;;;6.33;;
20069;SDS011;10195;50.868;4.382;2023-11-19T06:11:39;33.07;;;5.63;;
20069;SDS011;10195;50.868;4.382;2023-11-19T06:14:05;38.50;;;6.20;;
20069;SDS011;10195;50.868;4.382;2023-11-19T06:16:32;43.00;;;6.03;;
20069;SDS011;10195;50.868;4.382;2023-11-19T06:18:58;27.90;;;5.57;;
20069;SDS011;10195;50.868;4.382;2023-11-19T06:21:23;42.73;;;5.93;;
20069;SDS011;10195;50.868;4.382;2023-11-19T06:23:50;43.97;;;5.40;;
20069;SDS011;10195;50.868;4.382;2023-11-19T06:26:17;28.20;;;5.60;;
20069;SDS011;10195;50.868;4.382;2023-11-19T06:28:43;39.13;;;5.87;;
20069;SDS011;10195;50.868;4.382;2023-11-19T06:31:09;30.57;;;5.23;;
20069;SDS011;10195;50.868;4.382;2023-11-19T06:33:34;39.10;;;6.03;;
20069;SDS011;10195;50.868;4.382;2023-11-19T06:36:00;35.60;;;5.87;;
20069;SDS011;10195;50.868;4.382;2023-11-19T06:38:26;34.87;;;5.30;;
20069;SDS011;10195;50.868;4.382;2023-11-19T06:40:51;32.57;;;5.63;;
20069;SDS011;10195;50.868;4.382;2023-11-19T06:43:17;37.83;;;5.03;;
20069;SDS011;10195;50.868;4.382;2023-11-19T06:45:43;37.40;;;5.83;;
20069;SDS011;10195;50.868;4.382;2023-11-19T06:48:08;38.07;;;5.73;;
20069;SDS011;10195;50.868;4.382;2023-11-19T06:50:34;44.67;;;6.23;;
20069;SDS011;10195;50.868;4.382;2023-11-19T06:53:00;34.50;;;5.70;;
20069;SDS011;10195;50.868;4.382;2023-11-19T06:55:26;32.77;;;5.27;;
20069;SDS011;10195;50.868;4.382;2023-11-19T06:57:52;43.27;;;5.93;;
20069;SDS011;10195;50.868;4.382;2023-11-19T07:00:18;44.77;;;5.90;;
20069;SDS011;10195;50.868;4.382;2023-11-19T07:02:44;37.13;;;6.57;;
20069;SDS011;10195;50.868;4.382;2023-11-19T07:05:09;49.73;;;6.30;;
20069;SDS011;10195;50.868;4.382;2023-11-19T07:07:37;30.70;;;5.27;;
20069;SDS011;10195;50.868;4.382;2023-11-19T07:10:03;42.77;;;5.67;;
20069;SDS011;10195;50.868;4.382;2023-11-19T07:12:29;35.37;;;5.23;;
20069;SDS011;10195;50.868;4.382;2023-11-19T07:14:55;38.60;;;5.90;;
20069;SDS011;10195;50.868;4.382;2023-11-19T07:17:21;41.17;;;6.00;;
20069;SDS011;10195;50.868;4.382;2023-11-19T07:19:51;57.00;;;6.47;;
20069;SDS011;10195;50.868;4.382;2023-11-19T07:22:17;37.50;;;5.80;;
20069;SDS011;10195;50.868;4.382;2023-11-19T07:24:43;26.53;;;4.70;;
20069;SDS011;10195;50.868;4.382;2023-11-19T07:27:08;32.30;;;5.70;;
20069;SDS011;10195;50.868;4.382;2023-11-19T07:29:37;33.83;;;5.67;;
20069;SDS011;10195;50.868;4.382;2023-11-19T07:32:03;37.57;;;5.80;;
20069;SDS011;10195;50.868;4.382;2023-11-19T07:34:30;39.83;;;5.63;;
20069;SDS011;10195;50.868;4.382;2023-11-19T07:36:55;42.63;;;5.67;;
20069;SDS011;10195;50.868;4.382;2023-11-19T07:39:24;34.23;;;5.60;;
20069;SDS011;10195;50.868;4.382;2023-11-19T07:41:50;44.50;;;6.73;;
20069;SDS011;10195;50.868;4.382;2023-11-19T07:44:15;44.20;;;5.47;;
20069;SDS011;10195;50.868;4.382;2023-11-19T07:46:41;34.00;;;5.50;;
20069;SDS011;10195;50.868;4.382;2023-11-19T07:49:10;33.73;;;5.47;;
20069;SDS011;10195;50.868;4.382;2023-11-19T07:51:36;33.47;;;6.30;;
20069;SDS011;10195;50.868;4.382;2023-11-19T07:54:01;29.47;;;4.40;;
20069;SDS011;10195;50.868;4.382;2023-11-19T07:56:27;38.37;;;5.37;;
20069;SDS011;10195;50.868;4.382;2023-11-19T07:58:53;31.17;;;5.33;;
20069;SDS011;10195;50.868;4.382;2023-11-19T08:01:21;34.57;;;5.70;;
20069;SDS011;10195;50.868;4.382;2023-11-19T08:03:48;32.53;;;5.10;;
20069;SDS011;10195;50.868;4.382;2023-11-19T08:06:14;24.10;;;4.30;;
20069;SDS011;10195;50.868;4.382;2023-11-19T08:08:40;31.43;;;5.13;;
20069;SDS011;10195;50.868;4.382;2023-11-19T08:11:05;35.63;;;5.73;;
20069;SDS011;10195;50.868;4.382;2023-11-19T08:13:31;33.63;;;5.23;;
20069;SDS011;10195;50.868;4.382;2023-11-19T08:15:57;25.17;;;4.50;;
20069;SDS011;10195;50.868;4.382;2023-11-19T08:18:23;33.17;;;5.57;;
20069;SDS011;10195;50.868;4.382;2023-11-19T08:20:49;28.80;;;4.40;;
20069;SDS011;10195;50.868;4.382;2023-11-19T08:23:18;29.27;;;4.80;;
20069;SDS011;10195;50.868;4.382;2023-11-19T08:25:44;35.17;;;5.30;;
20069;SDS011;10195;50.868;4.382;2023-11-19T08:28:09;32.30;;;4.93;;
20069;SDS011;10195;50.868;4.382;2023-11-19T08:30:35;29.83;;;5.53;;
20069;SDS011;10195;50.868;4.382;2023-11-19T08:33:01;29.70;;;4.53;;
20069;SDS011;10195;50.868;4.382;2023-11-19T08:35:30;27.20;;;4.60;;
20069;SDS011;10195;50.868;4.382;2023-11-19T08:37:56;30.30;;;5.43;;
20069;SDS011;10195;50.868;4.382;2023-11-19T08:40:24;28.73;;;5.23;;
20069;SDS011;10195;50.868;4.382;2023-11-19T08:42:50;34.67;;;5.43;;
20069;SDS011;10195;50.868;4.382;2023-11-19T08:45:16;27.17;;;3.67;;
20069;SDS011;10195;50.868;4.382;2023-11-19T08:47:42;21.80;;;4.43;;
20069;SDS011;10195;50.868;4.382;2023-11-19T08:50:08;27.00;;;4.73;;
20069;SDS011;10195;50.868;4.382;2023-11-19T08:52:34;36.70;;;5.23;;
20069;SDS011;10195;50.868;4.382;2023-11-19T08:55:00;34.43;;;5.43;;
20069;SDS011;10195;50.868;4.382;2023-11-19T08:57:25;23.97;;;5.30;;
20069;SDS011;10195;50.868;4.382;2023-11-19T08:59:51;36.77;;;7.10;;
20069;SDS011;10195;50.868;4.382;2023-11-19T09:02:17;30.87;;;5.97;;
20069;SDS011;10195;50.868;4.382;2023-11-19T09:04:43;35.83;;;5.40;;
20069;SDS011;10195;50.868;4.382;2023-11-19T09:07:09;29.33;;;4.63;;
20069;SDS011;10195;50.868;4.382;2023-11-19T09:09:35;32.43;;;4.70;;
20069;SDS011;10195;50.868;4.382;2023-11-19T09:12:02;40.67;;;5.67;;
20069;SDS011;10195;50.868;4.382;2023-11-19T09:14:28;28.30;;;4.80;;
20069;SDS011;10195;50.868;4.382;2023-11-19T09:16:55;21.03;;;3.50;;
20069;SDS011;10195;50.868;4.382;2023-11-19T09:19:21;28.30;;;5.07;;
20069;SDS011;10195;50.868;4.382;2023-11-19T09:21:47;21.77;;;4.83;;
20069;SDS011;10195;50.868;4.382;2023-11-19T09:24:14;27.70;;;4.80;;
20069;SDS011;10195;50.868;4.382;2023-11-19T09:26:40;19.50;;;3.73;;
20069;SDS011;10195;50.868;4.382;2023-11-19T09:29:09;29.87;;;5.50;;
20069;SDS011;10195;50.868;4.382;2023-11-19T09:31:37;27.63;;;4.00;;
20069;SDS011;10195;50.868;4.382;2023-11-19T09:34:03;25.30;;;4.23;;
20069;SDS011;10195;50.868;4.382;2023-11-19T09:36:30;18.40;;;3.67;;
20069;SDS011;10195;50.868;4.382;2023-11-19T09:38:56;26.47;;;5.27;;
20069;SDS011;10195;50.868;4.382;2023-11-19T09:41:22;23.57;;;4.40;;
20069;SDS011;10195;50.868;4.382;2023-11-19T09:43:49;20.73;;;3.93;;
20069;SDS011;10195;50.868;4.382;2023-11-19T09:46:16;25.47;;;5.23;;
20069;SDS011;10195;50.868;4.382;2023-11-19T09:48:42;27.27;;;5.43;;
20069;SDS011;10195;50.868;4.382;2023-11-19T09:51:10;30.27;;;4.93;;
20069;SDS011;10195;50.868;4.382;2023-11-19T09:53:36;22.33;;;4.83;;
20069;SDS011;10195;50.868;4.382;2023-11-19T09:56:03;23.57;;;4.17;;
20069;SDS011;10195;50.868;4.382;2023-11-19T09:58:30;23.03;;;4.73;;
20069;SDS011;10195;50.868;4.382;2023-11-19T10:00:57;26.73;;;5.23;;
20069;SDS011;10195;50.868;4.382;2023-11-19T10:03:27;19.57;;;4.20;;
20069;SDS011;10195;50.868;4.382;2023-11-19T10:05:57;28.90;;;5.70;;
20069;SDS011;10195;50.868;4.382;2023-11-19T10:08:24;20.83;;;5.00;;
20069;SDS011;10195;50.868;4.382;2023-11-19T10:10:50;24.60;;;5.50;;
20069;SDS011;10195;50.868;4.382;2023-11-19T10:13:17;21.83;;;4.10;;
20069;SDS011;10195;50.868;4.382;2023-11-19T10:15:43;19.97;;;3.80;;
20069;SDS011;10195;50.868;4.382;2023-11-19T10:18:09;28.83;;;5.83;;
20069;SDS011;10195;50.868;4.382;2023-11-19T10:20:40;21.80;;;4.43;;
20069;SDS011;10195;50.868;4.382;2023-11-19T10:23:06;32.33;;;5.30;;
20069;SDS011;10195;50.868;4.382;2023-11-19T10:25:32;26.53;;;5.43;;
20069;SDS011;10195;50.868;4.382;2023-11-19T10:27:59;18.87;;;4.40;;
20069;SDS011;10195;50.868;4.382;2023-11-19T10:30:29;24.83;;;4.47;;
20069;SDS011;10195;50.868;4.382;2023-11-19T10:35:33;26.07;;;5.87;;
20069;SDS011;10195;50.868;4.382;2023-11-19T10:38:00;22.00;;;4.53;;
20069;SDS011;10195;50.868;4.382;2023-11-19T10:40:38;28.33;;;5.50;;
20069;SDS011;10195;50.868;4.382;2023-11-19T10:43:05;30.50;;;4.77;;
20069;SDS011;10195;50.868;4.382;2023-11-19T10:45:32;23.53;;;4.40;;
20069;SDS011;10195;50.868;4.382;2023-11-19T10:47:58;25.53;;;4.10;;
20069;SDS011;10195;50.868;4.382;2023-11-19T10:50:26;18.27;;;3.80;;
20069;SDS011;10195;50.868;4.382;2023-11-19T10:52:55;20.53;;;4.50;;
20069;SDS011;10195;50.868;4.382;2023-11-19T10:55:28;31.10;;;5.50;;
20069;SDS011;10195;50.868;4.382;2023-11-19T10:58:00;16.40;;;3.57;;
20069;SDS011;10195;50.868;4.382;2023-11-19T11:00:38;19.47;;;4.23;;
20069;SDS011;10195;50.868;4.382;2023-11-19T11:03:25;17.23;;;3.93;;
20069;SDS011;10195;50.868;4.382;2023-11-19T11:05:52;19.93;;;4.30;;
20069;SDS011;10195;50.868;4.382;2023-11-19T11:08:19;15.97;;;3.90;;
20069;SDS011;10195;50.868;4.382;2023-11-19T11:10:48;25.70;;;4.77;;
20069;SDS011;10195;50.868;4.382;2023-11-19T11:13:20;22.30;;;4.47;;
20069;SDS011;10195;50.868;4.382;2023-11-19T11:15:48;18.97;;;4.13;;
20069;SDS011;10195;50.868;4.382;2023-11-19T11:18:15;24.97;;;4.43;;
20069;SDS011;10195;50.868;4.382;2023-11-19T11:20:45;28.27;;;4.93;;
20069;SDS011;10195;50.868;4.382;2023-11-19T11:34:20;30.63;;;5.97;;
20069;SDS011;10195;50.868;4.382;2023-11-19T11:36:32;30.20;;;5.27;;
20069;SDS011;10195;50.868;4.382;2023-11-19T11:39:28;29.73;;;5.37;;
20069;SDS011;10195;50.868;4.382;2023-11-19T11:42:38;33.43;;;6.13;;
20069;SDS011;10195;50.868;4.382;2023-11-19T11:50:10;34.40;;;5.70;;
20069;SDS011;10195;50.868;4.382;2023-11-19T11:55:27;25.97;;;5.50;;
20069;SDS011;10195;50.868;4.382;2023-11-19T11:58:01;24.93;;;4.90;;
20069;SDS011;10195;50.868;4.382;2023-11-19T12:03:01;25.03;;;5.07;;
20069;SDS011;10195;50.868;4.382;2023-11-19T12:05:27;23.20;;;4.70;;
20069;SDS011;10195;50.868;4.382;2023-11-19T12:08:01;26.43;;;5.00;;
20069;SDS011;10195;50.868;4.382;2023-11-19T12:10:30;25.33;;;4.80;;
20069;SDS011;10195;50.868;4.382;2023-11-19T12:12:58;27.63;;;5.60;;
20069;SDS011;10195;50.868;4.382;2023-11-19T12:15:25;24.93;;;6.77;;
20069;SDS011;10195;50.868;4.382;2023-11-19T12:17:52;36.40;;;9.23;;
20069;SDS011;10195;50.868;4.382;2023-11-19T12:20:20;19.37;;;4.17;;
20069;SDS011;10195;50.868;4.382;2023-11-19T12:22:48;27.13;;;5.17;;
20069;SDS011;10195;50.868;4.382;2023-11-19T12:25:15;18.17;;;4.23;;
20069;SDS011;10195;50.868;4.382;2023-11-19T12:27:48;16.07;;;3.33;;
20069;SDS011;10195;50.868;4.382;2023-11-19T12:30:21;26.43;;;4.53;;
20069;SDS011;10195;50.868;4.382;2023-11-19T12:32:50;24.80;;;4.57;;
20069;SDS011;10195;50.868;4.382;2023-11-19T12:35:19;23.10;;;3.93;;
20069;SDS011;10195;50.868;4.382;2023-11-19T12:37:45;17.70;;;3.73;;
20069;SDS011;10195;50.868;4.382;2023-11-19T12:42:47;24.93;;;4.63;;
20069;SDS011;10195;50.868;4.382;2023-11-19T12:45:14;24.80;;;5.10;;
20069;SDS011;10195;50.868;4.382;2023-11-19T12:47:41;28.33;;;4.57;;
20069;SDS011;10195;50.868;4.382;2023-11-19T12:50:12;27.63;;;4.93;;
20069;SDS011;10195;50.868;4.382;2023-11-19T12:52:38;29.17;;;5.77;;
20069;SDS011;10195;50.868;4.382;2023-11-19T12:55:05;23.33;;;4.80;;
20069;SDS011;10195;50.868;4.382;2023-11-19T12:57:51;30.27;;;6.80;;
20069;SDS011;10195;50.868;4.382;2023-11-19T13:00:21;29.03;;;5.53;;
20069;SDS011;10195;50.868;4.382;2023-11-19T13:02:56;34.80;;;5.70;;
20069;SDS011;10195;50.868;4.382;2023-11-19T13:08:00;24.73;;;5.30;;
20069;SDS011;10195;50.868;4.382;2023-11-19T13:10:28;28.40;;;5.87;;
20069;SDS011;10195;50.868;4.382;2023-11-19T13:13:06;34.83;;;5.47;;
20069;SDS011;10195;50.868;4.382;2023-11-19T13:15:33;37.00;;;6.37;;
20069;SDS011;10195;50.868;4.382;2023-11-19T13:18:00;24.83;;;4.73;;
20069;SDS011;10195;50.868;4.382;2023-11-19T13:20:27;28.17;;;6.20;;
20069;SDS011;10195;50.868;4.382;2023-11-19T13:23:03;27.40;;;6.43;;
20069;SDS011;10195;50.868;4.382;2023-11-19T13:25:30;24.47;;;4.87;;
20069;SDS011;10195;50.868;4.382;2023-11-19T13:27:57;20.40;;;3.73;;
20069;SDS011;10195;50.868;4.382;2023-11-19T13:30:23;21.50;;;4.33;;
20069;SDS011;10195;50.868;4.382;2023-11-19T13:32:49;21.23;;;5.73;;
20069;SDS011;10195;50.868;4.382;2023-11-19T13:35:16;29.90;;;4.93;;
20069;SDS011;10195;50.868;4.382;2023-11-19T13:37:43;30.47;;;5.27;;
20069;SDS011;10195;50.868;4.382;2023-11-19T13:40:11;28.13;;;5.47;;
20069;SDS011;10195;50.868;4.382;2023-11-19T13:42:41;27.93;;;4.93;;
20069;SDS011;10195;50.868;4.382;2023-11-19T13:47:41;27.77;;;5.77;;
20069;SDS011;10195;50.868;4.382;2023-11-19T13:50:09;29.33;;;5.33;;
20069;SDS011;10195;50.868;4.382;2023-11-19T13:52:36;24.70;;;4.97;;
20069;SDS011;10195;50.868;4.382;2023-11-19T13:55:06;22.07;;;5.07;;
20069;SDS011;10195;50.868;4.382;2023-11-19T13:57:33;37.80;;;7.43;;
20069;SDS011;10195;50.868;4.382;2023-11-19T14:00:00;34.13;;;5.70;;
20069;SDS011;10195;50.868;4.382;2023-11-19T14:02:30;25.57;;;5.00;;
20069;SDS011;10195;50.868;4.382;2023-11-19T14:04:56;32.50;;;5.50;;
20069;SDS011;10195;50.868;4.382;2023-11-19T14:07:21;28.10;;;5.50;;
20069;SDS011;10195;50.868;4.382;2023-11-19T14:09:47;25.53;;;5.40;;
20069;SDS011;10195;50.868;4.382;2023-11-19T14:12:13;28.27;;;5.20;;
20069;SDS011;10195;50.868;4.382;2023-11-19T14:14:38;29.93;;;5.40;;
20069;SDS011;10195;50.868;4.382;2023-11-19T14:17:04;31.60;;;5.87;;
20069;SDS011;10195;50.868;4.382;2023-11-19T14:19:30;26.40;;;5.70;;
20069;SDS011;10195;50.868;4.382;2023-11-19T14:21:56;29.00;;;6.00;;
20069;SDS011;10195;50.868;4.382;2023-11-19T14:24:21;28.40;;;5.40;;
20069;SDS011;10195;50.868;4.382;2023-11-19T14:26:48;36.33;;;6.30;;
20069;SDS011;10195;50.868;4.382;2023-11-19T14:29:15;32.10;;;5.97;;
20069;SDS011;10195;50.868;4.382;2023-11-19T14:31:40;29.57;;;5.27;;
20069;SDS011;10195;50.868;4.382;2023-11-19T14:34:06;31.67;;;5.37;;
20069;SDS011;10195;50.868;4.382;2023-11-19T14:36:32;29.90;;;5.57;;
20069;SDS011;10195;50.868;4.382;2023-11-19T14:38:57;27.30;;;5.83;;
20069;SDS011;10195;50.868;4.382;2023-11-19T14:41:26;39.67;;;7.27;;
20069;SDS011;10195;50.868;4.382;2023-11-19T14:43:51;28.87;;;5.87;;
20069;SDS011;10195;50.868;4.382;2023-11-19T14:46:17;28.43;;;4.83;;
20069;SDS011;10195;50.868;4.382;2023-11-19T14:48:43;34.27;;;6.00;;
20069;SDS011;10195;50.868;4.382;2023-11-19T14:51:09;35.03;;;5.90;;
20069;SDS011;10195;50.868;4.382;2023-11-19T14:53:35;37.67;;;6.10;;
20069;SDS011;10195;50.868;4.382;2023-11-19T14:56:00;32.37;;;6.47;;
20069;SDS011;10195;50.868;4.382;2023-11-19T14:58:27;39.03;;;7.87;;
20069;SDS011;10195;50.868;4.382;2023-11-19T15:00:53;36.67;;;6.13;;
20069;SDS011;10195;50.868;4.382;2023-11-19T15:03:18;30.53;;;5.77;;
20069;SDS011;10195;50.868;4.382;2023-11-19T15:05:47;25.60;;;6.07;;
20069;SDS011;10195;50.868;4.382;2023-11-19T15:08:13;26.17;;;6.10;;